createdAt,value
2019-03-02T00:02:09.718Z,64.71
2019-03-02T00:04:41.940Z,64.81
2019-03-02T00:07:11.345Z,64.86
2019-03-02T00:09:41.199Z,65.06
2019-03-02T00:12:11.700Z,65.27
2019-03-02T00:14:41.504Z,65.52
2019-03-02T00:17:11.316Z,65.63
2019-03-02T00:19:41.923Z,65.75
2019-03-02T00:22:12.610Z,65.97
2019-03-02T00:24:43.044Z,66.18
2019-03-02T00:27:12.679Z,66.36
2019-03-02T00:29:42.492Z,66.52
2019-03-02T00:32:13.706Z,66.76
2019-03-02T00:34:43.333Z,66.88
2019-03-02T00:37:12.961Z,67.07
2019-03-02T00:39:42.636Z,67.15
2019-03-02T00:42:16.999Z,67.20
2019-03-02T00:44:46.266Z,67.35
2019-03-02T00:47:15.958Z,67.52
2019-03-02T00:49:45.584Z,67.61
2019-03-02T00:52:15.245Z,67.61
2019-03-02T00:54:47.365Z,67.68
2019-03-02T00:57:18.604Z,67.88
2019-03-02T00:59:48.598Z,68.18
2019-03-02T01:02:18.683Z,68.38
2019-03-02T01:04:49.425Z,68.55
2019-03-02T01:07:20.782Z,68.73
2019-03-02T01:09:50.436Z,68.76
2019-03-02T01:12:20.070Z,69.10
2019-03-02T01:14:50.029Z,69.28
2019-03-02T01:17:19.725Z,69.46
2019-03-02T01:19:52.589Z,69.47
2019-03-02T01:22:20.986Z,69.51
2019-03-02T01:24:51.546Z,69.42
2019-03-02T01:27:22.434Z,69.23
2019-03-02T01:29:54.723Z,69.26
2019-03-02T01:32:23.709Z,69.35
2019-03-02T01:34:53.337Z,69.35
2019-03-02T01:37:23.140Z,69.52
2019-03-02T01:39:52.854Z,69.63
2019-03-02T01:42:25.879Z,69.72
2019-03-02T01:44:54.253Z,70.09
2019-03-02T01:47:24.314Z,70.17
2019-03-02T01:49:53.948Z,70.42
2019-03-02T01:52:23.578Z,70.38
2019-03-02T01:54:55.743Z,70.54
2019-03-02T01:57:25.550Z,70.67
2019-03-02T01:59:55.513Z,70.82
2019-03-02T02:02:25.389Z,70.85
2019-03-02T02:04:57.535Z,70.86
2019-03-02T02:07:26.620Z,70.85
2019-03-02T02:09:56.358Z,70.93
2019-03-02T02:12:28.819Z,70.93
2019-03-02T02:14:57.313Z,71.12
2019-03-02T02:17:26.996Z,70.92
2019-03-02T02:19:56.623Z,71.17
2019-03-02T02:22:26.315Z,71.39
2019-03-02T02:24:56.812Z,71.50
2019-03-02T02:27:28.729Z,71.61
2019-03-02T02:29:58.358Z,71.65
2019-03-02T02:32:28.061Z,71.62
2019-03-02T02:35:01.112Z,71.65
2019-03-02T02:37:32.234Z,71.53
2019-03-02T02:40:00.487Z,71.20
2019-03-02T02:42:30.113Z,71.26
2019-03-02T02:44:59.731Z,71.44
2019-03-02T02:47:30.337Z,71.34
2019-03-02T02:49:59.974Z,71.32
2019-03-02T02:52:29.638Z,71.41
2019-03-02T02:55:02.325Z,71.67
2019-03-02T02:57:33.537Z,71.87
2019-03-02T03:00:05.263Z,72.26
2019-03-02T03:02:34.963Z,72.48
2019-03-02T03:05:10.244Z,72.62
2019-03-02T03:07:36.967Z,72.76
2019-03-02T03:10:17.440Z,73.01
2019-03-02T03:12:48.350Z,73.17
2019-03-02T03:15:18.646Z,73.29
2019-03-02T03:17:48.328Z,73.53
2019-03-02T03:20:17.959Z,73.71
2019-03-02T03:22:47.708Z,74.12
2019-03-02T03:25:18.185Z,74.35
2019-03-02T03:27:52.015Z,74.53
2019-03-02T03:30:33.956Z,74.67
2019-03-02T03:32:56.009Z,74.70
2019-03-02T03:35:23.728Z,74.79
2019-03-02T03:37:53.802Z,74.84
2019-03-02T03:40:25.556Z,74.97
2019-03-02T03:43:02.496Z,75.21
2019-03-02T03:45:28.229Z,75.23
2019-03-02T03:47:57.696Z,75.30
2019-03-02T03:50:27.323Z,75.39
2019-03-02T03:52:56.953Z,75.29
2019-03-02T03:55:27.485Z,75.46
2019-03-02T03:58:00.335Z,75.57
2019-03-02T04:00:34.393Z,75.67
2019-03-02T04:03:02.419Z,75.88
2019-03-02T04:05:32.145Z,75.98
2019-03-02T04:08:01.783Z,76.00
2019-03-02T04:10:31.682Z,76.07
2019-03-02T04:13:04.969Z,76.16
2019-03-02T04:15:40.943Z,76.26
2019-03-02T04:18:25.491Z,76.37
2019-03-02T04:20:56.771Z,76.53
2019-03-02T04:23:26.512Z,76.64
2019-03-02T04:25:57.963Z,76.66
2019-03-02T04:28:31.410Z,76.74
2019-03-02T04:31:04.506Z,76.78
2019-03-02T04:33:31.730Z,76.78
2019-03-02T04:36:01.708Z,76.86
2019-03-02T04:38:33.653Z,76.89
2019-03-02T04:41:04.858Z,76.93
2019-03-02T04:43:34.742Z,76.90
2019-03-02T04:46:04.374Z,76.93
2019-03-02T04:48:35.816Z,76.96
2019-03-02T04:51:05.395Z,76.98
2019-03-02T04:53:35.195Z,77.09
2019-03-02T04:56:05.049Z,77.17
2019-03-02T04:58:34.955Z,77.22
2019-03-02T05:01:06.885Z,77.22
2019-03-02T05:03:35.984Z,77.21
2019-03-02T05:06:05.806Z,77.23
2019-03-02T05:08:37.574Z,77.23
2019-03-02T05:11:06.960Z,77.26
2019-03-02T05:13:36.591Z,77.35
2019-03-02T05:16:06.501Z,77.36
2019-03-02T05:18:36.368Z,77.37
2019-03-02T05:21:06.258Z,77.42
2019-03-02T05:23:35.888Z,77.37
2019-03-02T05:26:05.627Z,77.26
2019-03-02T05:28:39.583Z,77.30
2019-03-02T05:31:08.550Z,77.26
2019-03-02T05:33:38.635Z,77.22
2019-03-02T05:36:08.647Z,77.09
2019-03-02T05:38:38.276Z,76.99
2019-03-02T05:41:08.440Z,77.06
2019-03-02T05:43:38.567Z,77.07
2019-03-02T05:46:08.307Z,77.11
2019-03-02T05:48:38.973Z,77.06
2019-03-02T05:51:09.437Z,77.11
2019-03-02T05:53:39.062Z,76.99
2019-03-02T05:56:08.743Z,77.09
2019-03-02T05:58:38.537Z,77.14
2019-03-02T06:01:08.165Z,77.17
2019-03-02T06:03:37.960Z,77.08
2019-03-02T06:06:07.595Z,77.18
2019-03-02T06:08:39.332Z,77.22
2019-03-02T06:11:09.011Z,77.44
2019-03-02T06:13:38.633Z,77.48
2019-03-02T06:16:08.429Z,77.19
2019-03-02T06:18:38.484Z,76.98
2019-03-02T06:21:10.868Z,76.86
2019-03-02T06:23:40.285Z,76.71
2019-03-02T06:26:10.533Z,76.56
2019-03-02T06:28:40.170Z,76.50
2019-03-02T06:31:09.802Z,76.53
2019-03-02T06:33:40.719Z,76.90
2019-03-02T06:36:11.116Z,76.73
2019-03-02T06:38:40.749Z,76.51
2019-03-02T06:41:10.761Z,76.24
2019-03-02T06:43:40.665Z,75.96
2019-03-02T06:46:10.301Z,75.58
2019-03-02T06:48:41.561Z,75.19
2019-03-02T06:51:12.439Z,74.90
2019-03-02T06:53:42.678Z,74.46
2019-03-02T06:56:12.463Z,73.97
2019-03-02T06:58:43.679Z,73.15
2019-03-02T07:01:13.308Z,72.66
2019-03-02T07:03:45.918Z,72.30
2019-03-02T07:06:14.753Z,72.35
2019-03-02T07:08:45.663Z,72.14
2019-03-02T07:11:15.503Z,71.64
2019-03-02T07:13:45.341Z,71.39
2019-03-02T07:16:20.013Z,71.16
2019-03-02T07:18:55.555Z,70.91
2019-03-02T07:21:25.180Z,70.91
2019-03-02T07:23:55.101Z,70.90
2019-03-02T07:26:24.879Z,70.87
2019-03-02T07:28:54.504Z,70.51
2019-03-02T07:31:24.120Z,69.47
2019-03-02T07:33:55.443Z,68.52
2019-03-02T07:36:28.048Z,67.65
2019-03-02T07:38:57.353Z,67.06
2019-03-02T07:41:27.100Z,67.33
2019-03-02T07:43:56.723Z,67.23
2019-03-02T07:46:26.341Z,67.14
2019-03-02T07:48:56.034Z,66.94
2019-03-02T07:51:25.999Z,66.75
2019-03-02T07:53:56.560Z,66.57
2019-03-02T07:56:29.540Z,66.15
2019-03-02T07:58:57.750Z,65.45
2019-03-02T08:01:27.367Z,65.35
2019-03-02T08:03:59.661Z,65.20
2019-03-02T08:06:28.844Z,64.46
2019-03-02T08:08:59.335Z,64.16
2019-03-02T08:11:29.215Z,64.22
2019-03-02T08:13:59.620Z,62.97
2019-03-02T08:16:29.801Z,63.15
2019-03-02T08:19:00.535Z,62.45
2019-03-02T08:21:32.457Z,61.17
2019-03-02T08:24:02.989Z,62.17
2019-03-02T08:26:32.784Z,61.96
2019-03-02T08:29:03.311Z,60.71
2019-03-02T08:31:33.200Z,61.16
2019-03-02T08:34:05.856Z,60.75
2019-03-02T08:36:35.159Z,59.82
2019-03-02T08:39:06.864Z,59.15
2019-03-02T08:41:37.931Z,59.59
2019-03-02T08:44:07.555Z,59.42
2019-03-02T08:46:37.175Z,59.56
2019-03-02T08:49:07.194Z,59.08
2019-03-02T08:51:37.031Z,58.46
2019-03-02T08:54:06.846Z,57.44
2019-03-02T08:56:38.892Z,57.59
2019-03-02T08:59:08.946Z,57.05
2019-03-02T09:01:39.097Z,58.38
2019-03-02T09:04:10.237Z,58.09
2019-03-02T09:06:40.859Z,57.38
2019-03-02T09:09:10.508Z,57.47
2019-03-02T09:11:40.891Z,58.34
2019-03-02T09:14:12.606Z,58.65
2019-03-02T09:16:43.297Z,58.58
2019-03-02T09:19:13.237Z,58.79
2019-03-02T09:21:44.696Z,58.75
2019-03-02T09:24:14.283Z,58.27
2019-03-02T09:26:43.937Z,58.06
2019-03-02T09:29:14.174Z,58.33
2019-03-02T09:31:44.167Z,58.30
2019-03-02T09:34:13.856Z,58.16
2019-03-02T09:36:45.064Z,58.18
2019-03-02T09:39:15.621Z,57.50
2019-03-02T09:41:45.363Z,57.38
2019-03-02T09:44:15.155Z,57.34
2019-03-02T09:46:44.774Z,57.53
2019-03-02T09:49:16.475Z,56.98
2019-03-02T09:51:48.189Z,56.76
2019-03-02T09:54:17.790Z,57.15
2019-03-02T09:56:47.795Z,56.10
2019-03-02T09:59:18.292Z,56.01
2019-03-02T10:01:48.176Z,55.76
2019-03-02T10:04:18.864Z,55.80
2019-03-02T10:06:50.373Z,55.77
2019-03-02T10:09:21.985Z,56.17
2019-03-02T10:11:51.160Z,56.16
2019-03-02T10:14:26.648Z,56.25
2019-03-02T10:16:56.519Z,55.96
2019-03-02T10:19:28.962Z,55.61
2019-03-02T10:21:57.648Z,55.79
2019-03-02T10:24:28.964Z,55.66
2019-03-02T10:26:58.795Z,55.39
2019-03-02T10:29:28.417Z,55.03
2019-03-02T10:31:59.136Z,54.67
2019-03-02T10:34:28.812Z,54.09
2019-03-02T10:36:59.382Z,53.57
2019-03-02T10:39:32.770Z,53.75
2019-03-02T10:42:01.209Z,53.99
2019-03-02T10:44:31.078Z,53.27
2019-03-02T10:47:00.695Z,53.43
2019-03-02T10:49:30.491Z,52.83
2019-03-02T10:52:01.315Z,52.65
2019-03-02T10:54:31.638Z,51.68
2019-03-02T10:57:02.537Z,51.42
2019-03-02T10:59:32.162Z,51.24
2019-03-02T11:02:01.791Z,50.74
2019-03-02T11:04:40.942Z,50.98
2019-03-02T11:07:28.649Z,50.55
2019-03-02T11:10:16.587Z,51.15
2019-03-02T11:12:57.821Z,49.98
2019-03-02T11:15:32.054Z,49.78
2019-03-02T11:18:03.324Z,49.55
2019-03-02T11:20:38.094Z,49.63
2019-03-02T11:23:15.762Z,49.29
2019-03-02T11:25:47.912Z,49.54
2019-03-02T11:28:27.977Z,48.91
2019-03-02T11:30:59.246Z,49.09
2019-03-02T11:33:30.963Z,48.66
2019-03-02T11:36:23.880Z,47.99
2019-03-02T11:39:01.220Z,48.16
2019-03-02T11:41:45.506Z,48.15
2019-03-02T11:44:25.582Z,47.44
2019-03-02T11:47:00.718Z,47.82
2019-03-02T11:49:40.951Z,47.23
2019-03-02T11:52:12.826Z,46.43
2019-03-02T11:54:55.906Z,46.58
2019-03-02T11:57:43.859Z,46.01
2019-03-02T12:00:37.705Z,46.01
2019-03-02T12:03:07.309Z,45.39
2019-03-02T12:05:41.254Z,45.11
2019-03-02T12:08:12.702Z,44.53
2019-03-02T12:10:44.242Z,44.28
2019-03-02T12:13:18.539Z,43.41
2019-03-02T12:16:01.576Z,42.69
2019-03-02T12:18:41.605Z,42.37
2019-03-02T12:21:18.018Z,42.27
2019-03-02T12:24:03.867Z,42.25
2019-03-02T12:26:53.251Z,42.51
2019-03-02T12:29:24.614Z,41.29
2019-03-02T12:32:03.879Z,41.35
2019-03-02T12:34:51.617Z,41.31
2019-03-02T12:37:39.152Z,39.68
2019-03-02T12:40:27.838Z,34.68
2019-03-02T12:42:59.140Z,32.38
2019-03-02T12:45:39.435Z,32.46
2019-03-02T12:48:26.507Z,30.16
2019-03-02T12:51:06.623Z,28.46
2019-03-02T12:53:37.930Z,27.85
2019-03-02T12:56:17.772Z,26.73
2019-03-02T12:58:55.409Z,26.58
2019-03-02T13:01:34.021Z,25.12
2019-03-02T13:04:18.142Z,23.12
2019-03-02T13:06:58.230Z,22.05
2019-03-02T13:09:36.876Z,21.76
2019-03-02T13:12:12.266Z,22.18
2019-03-02T13:14:43.676Z,22.25
2019-03-02T13:17:27.279Z,21.64
2019-03-02T13:19:59.014Z,20.18
2019-03-02T13:22:31.577Z,20.07
2019-03-02T13:25:11.708Z,19.24
2019-03-02T13:27:43.820Z,18.74
2019-03-02T13:30:15.077Z,18.06
2019-03-02T13:32:46.524Z,18.48
2019-03-02T13:35:32.824Z,18.45
2019-03-02T13:38:18.324Z,17.65
2019-03-02T13:41:05.005Z,16.41
2019-03-02T13:43:36.901Z,16.07
2019-03-02T13:46:18.654Z,16.16
2019-03-02T13:49:02.759Z,15.80
2019-03-02T13:51:37.996Z,15.08
2019-03-02T13:54:18.878Z,15.21
2019-03-02T13:57:04.712Z,14.92
2019-03-02T13:59:35.135Z,14.33
2019-03-02T14:02:15.623Z,14.33
2019-03-02T14:04:46.946Z,14.25
2019-03-02T14:07:18.325Z,13.94
2019-03-02T14:09:58.928Z,14.23
2019-03-02T14:12:42.348Z,13.94
2019-03-02T14:15:30.308Z,13.92
2019-03-02T14:18:01.580Z,13.66
2019-03-02T14:20:35.225Z,13.66
2019-03-02T14:23:09.493Z,13.65
2019-03-02T14:25:40.775Z,13.87
2019-03-02T14:28:21.383Z,13.60
2019-03-02T14:31:08.111Z,13.78
2019-03-02T14:33:48.527Z,15.10
2019-03-02T14:36:22.233Z,14.94
2019-03-02T14:39:02.782Z,14.35
2019-03-02T14:41:43.005Z,14.15
2019-03-02T14:44:14.322Z,14.07
2019-03-02T14:46:45.887Z,13.78
2019-03-02T14:49:20.521Z,13.59
2019-03-02T14:51:53.141Z,13.92
2019-03-02T14:54:39.953Z,14.07
2019-03-02T14:57:11.519Z,14.40
2019-03-02T14:59:46.831Z,14.47
2019-03-02T15:02:25.400Z,15.11
2019-03-02T15:04:56.782Z,16.49
2019-03-02T15:07:39.700Z,17.31
2019-03-02T15:10:18.824Z,18.86
2019-03-02T15:12:52.445Z,20.68
2019-03-02T15:15:39.480Z,22.67
2019-03-02T15:18:22.561Z,23.97
2019-03-02T15:20:53.058Z,24.98
2019-03-02T15:23:30.273Z,26.12
2019-03-02T15:26:07.867Z,27.01
2019-03-02T15:28:39.223Z,27.94
2019-03-02T15:31:22.772Z,28.71
2019-03-02T15:33:56.956Z,29.51
2019-03-02T15:36:40.059Z,30.06
2019-03-02T15:39:29.274Z,30.47
2019-03-02T15:42:03.180Z,31.32
2019-03-02T15:44:49.809Z,31.56
2019-03-02T15:47:21.069Z,32.44
2019-03-02T15:49:58.176Z,32.50
2019-03-02T15:52:30.647Z,32.92
2019-03-02T15:55:04.886Z,33.78
2019-03-02T15:57:43.938Z,34.15
2019-03-02T16:00:16.483Z,34.35
2019-03-02T16:02:47.799Z,34.69
2019-03-02T16:05:21.902Z,35.41
2019-03-02T16:07:59.410Z,36.04
2019-03-02T16:10:47.051Z,36.70
2019-03-02T16:13:34.509Z,36.89
2019-03-02T16:16:05.920Z,38.13
2019-03-02T16:18:49.192Z,38.53
2019-03-02T16:21:20.945Z,38.76
2019-03-02T16:23:55.500Z,39.44
2019-03-02T16:26:26.894Z,39.68
2019-03-02T16:29:15.069Z,40.31
2019-03-02T16:32:04.028Z,40.69
2019-03-02T16:34:38.020Z,40.71
2019-03-02T16:37:26.375Z,41.08
2019-03-02T16:40:06.892Z,41.69
2019-03-02T16:42:38.129Z,41.57
2019-03-02T16:45:21.058Z,41.87
2019-03-02T16:47:58.310Z,42.61
2019-03-02T16:50:29.677Z,42.89
2019-03-02T16:53:08.541Z,43.17
2019-03-02T16:55:49.319Z,43.31
2019-03-02T16:58:26.339Z,43.86
2019-03-02T17:01:12.758Z,44.14
2019-03-02T17:03:59.115Z,44.77
2019-03-02T17:06:48.035Z,44.99
2019-03-02T17:09:21.832Z,45.63
2019-03-02T17:11:54.021Z,45.91
2019-03-02T17:14:41.991Z,45.95
2019-03-02T17:17:30.832Z,46.43
2019-03-02T17:20:18.499Z,47.00
2019-03-02T17:22:52.254Z,47.25
2019-03-02T17:25:26.918Z,48.04
2019-03-02T17:28:15.765Z,48.92
2019-03-02T17:30:47.039Z,48.75
2019-03-02T17:33:21.470Z,48.96
2019-03-02T17:35:52.788Z,48.80
2019-03-02T17:38:27.079Z,49.17
2019-03-02T17:41:07.389Z,49.44
2019-03-02T17:43:34.191Z,50.20
2019-03-02T17:46:07.588Z,50.67
2019-03-02T17:48:38.927Z,50.67
2019-03-02T17:51:32.053Z,51.29
2019-03-02T17:54:07.338Z,51.29
2019-03-02T17:56:41.038Z,51.70
2019-03-02T17:59:12.768Z,51.51
2019-03-02T18:01:44.255Z,51.94
2019-03-02T18:04:15.536Z,52.24
2019-03-02T18:06:49.800Z,52.58
2019-03-02T18:09:24.027Z,52.70
2019-03-02T18:12:10.624Z,53.51
2019-03-02T18:14:41.897Z,53.67
2019-03-02T18:17:15.317Z,53.63
2019-03-02T18:19:44.539Z,53.65
2019-03-02T18:22:15.443Z,53.54
2019-03-02T18:24:46.960Z,54.14
2019-03-02T18:27:17.071Z,54.07
2019-03-02T18:29:46.709Z,53.90
2019-03-02T18:32:16.821Z,54.78
2019-03-02T18:34:46.504Z,55.01
2019-03-02T18:37:18.555Z,55.49
2019-03-02T18:39:49.011Z,55.32
2019-03-02T18:42:30.690Z,55.67
2019-03-02T18:45:10.385Z,55.54
2019-03-02T18:47:40.477Z,57.45
2019-03-02T18:50:28.879Z,56.95
2019-03-02T18:53:02.466Z,56.53
2019-03-02T18:55:32.737Z,56.66
2019-03-02T18:58:02.539Z,57.16
2019-03-02T19:00:34.237Z,57.32
2019-03-02T19:03:03.862Z,56.77
2019-03-02T19:05:33.577Z,57.23
2019-03-02T19:08:03.329Z,56.93
2019-03-02T19:10:33.690Z,57.42
2019-03-02T19:13:08.167Z,58.04
2019-03-02T19:15:36.871Z,58.12
2019-03-02T19:18:06.570Z,58.51
2019-03-02T19:20:37.273Z,58.17
2019-03-02T19:23:06.998Z,58.09
2019-03-02T19:25:36.631Z,58.80
2019-03-02T19:28:06.258Z,58.58
2019-03-02T19:30:36.461Z,59.18
2019-03-02T19:33:06.433Z,59.19
2019-03-02T19:35:37.920Z,59.07
2019-03-02T19:38:07.598Z,58.54
2019-03-02T19:40:38.152Z,58.40
2019-03-02T19:43:07.786Z,58.61
2019-03-02T19:45:38.489Z,59.45
2019-03-02T19:48:09.756Z,59.72
2019-03-02T19:50:39.380Z,60.02
2019-03-02T19:53:09.236Z,60.16
2019-03-02T19:55:39.237Z,60.28
2019-03-02T19:58:09.355Z,60.86
2019-03-02T20:00:39.569Z,61.20
2019-03-02T20:03:09.587Z,61.15
2019-03-02T20:05:39.224Z,61.59
2019-03-02T20:08:09.067Z,61.73
2019-03-02T20:10:39.210Z,61.59
2019-03-02T20:13:09.931Z,62.50
2019-03-02T20:15:39.794Z,62.79
2019-03-02T20:18:12.665Z,62.54
2019-03-02T20:20:42.298Z,62.96
2019-03-02T20:23:12.097Z,62.92
2019-03-02T20:25:43.100Z,62.84
2019-03-02T20:28:12.954Z,62.81
2019-03-02T20:30:45.510Z,63.15
2019-03-02T20:33:15.134Z,63.68
2019-03-02T20:35:44.769Z,64.42
2019-03-02T20:38:14.573Z,64.27
2019-03-02T20:40:44.197Z,63.58
2019-03-02T20:43:14.870Z,63.33
2019-03-02T20:45:44.529Z,62.72
2019-03-02T20:48:14.207Z,63.21
2019-03-02T20:50:43.928Z,63.40
2019-03-02T20:53:13.789Z,63.33
2019-03-02T20:55:43.416Z,62.95
2019-03-02T20:58:13.505Z,63.17
2019-03-02T21:00:44.031Z,63.53
2019-03-02T21:03:16.562Z,63.42
2019-03-02T21:05:46.188Z,63.50
2019-03-02T21:08:16.378Z,63.23
2019-03-02T21:10:46.011Z,63.50
2019-03-02T21:13:15.730Z,63.49
2019-03-02T21:15:49.397Z,63.23
2019-03-02T21:18:19.894Z,63.40
2019-03-02T21:20:51.009Z,63.21
2019-03-02T21:23:20.730Z,63.56
2019-03-02T21:25:52.115Z,63.59
2019-03-02T21:28:22.413Z,63.96
2019-03-02T21:30:54.120Z,63.54
2019-03-02T21:33:23.880Z,63.57
2019-03-02T21:35:53.517Z,63.69
2019-03-02T21:38:23.576Z,63.38
2019-03-02T21:40:53.221Z,63.34
2019-03-02T21:43:22.867Z,63.64
2019-03-02T21:45:52.519Z,63.30
2019-03-02T21:48:22.216Z,63.53
2019-03-02T21:50:57.870Z,63.37
2019-03-02T21:53:27.554Z,63.33
2019-03-02T21:55:57.203Z,63.13
2019-03-02T21:58:27.230Z,63.01
2019-03-02T22:00:56.965Z,62.87
2019-03-02T22:03:26.600Z,63.06
2019-03-02T22:05:57.000Z,63.31
2019-03-02T22:08:26.736Z,63.16
2019-03-02T22:11:02.214Z,62.67
2019-03-02T22:13:31.851Z,62.84
2019-03-02T22:16:01.539Z,62.71
2019-03-02T22:18:31.410Z,63.06
2019-03-02T22:21:01.033Z,63.18
2019-03-02T22:23:30.685Z,63.17
2019-03-02T22:26:00.591Z,63.49
2019-03-02T22:28:30.217Z,63.36
2019-03-02T22:30:59.992Z,63.55
2019-03-02T22:33:30.282Z,63.83
2019-03-02T22:36:00.276Z,63.66
2019-03-02T22:38:30.193Z,64.09
2019-03-02T22:40:59.820Z,64.20
2019-03-02T22:43:29.434Z,64.11
2019-03-02T22:45:59.102Z,64.34
2019-03-02T22:48:28.716Z,64.67
2019-03-02T22:50:58.333Z,64.58
2019-03-02T22:53:27.989Z,64.74
2019-03-02T22:55:57.610Z,64.75
2019-03-02T22:58:33.015Z,64.82
2019-03-02T23:01:18.324Z,64.71
2019-03-02T23:03:48.718Z,64.84
2019-03-02T23:06:18.910Z,65.20
2019-03-02T23:08:48.848Z,65.06
2019-03-02T23:11:18.836Z,65.18
2019-03-02T23:13:50.329Z,65.06
2019-03-02T23:16:20.007Z,65.19
2019-03-02T23:18:49.621Z,64.91
2019-03-02T23:21:19.725Z,64.80
2019-03-02T23:23:49.385Z,64.86
2019-03-02T23:26:19.376Z,64.80
2019-03-02T23:28:48.999Z,64.85
2019-03-02T23:31:19.022Z,65.04
2019-03-02T23:33:48.641Z,64.92
2019-03-02T23:36:18.283Z,65.04
2019-03-02T23:38:47.956Z,65.17
2019-03-02T23:41:17.591Z,65.05
2019-03-02T23:43:47.215Z,65.00
2019-03-02T23:46:17.245Z,65.00
2019-03-02T23:48:46.856Z,65.26
2019-03-02T23:51:16.470Z,65.09
2019-03-02T23:53:46.120Z,65.04
2019-03-02T23:56:15.745Z,64.82
2019-03-02T23:58:45.368Z,65.16
